createdAt,value
2019-05-21T00:00:38.695Z,37.64
2019-05-21T00:03:44.233Z,37.64
2019-05-21T00:06:48.735Z,37.61
2019-05-21T00:09:52.175Z,37.59
2019-05-21T00:12:55.658Z,37.64
2019-05-21T00:15:59.260Z,37.66
2019-05-21T00:19:02.784Z,37.61
2019-05-21T00:22:08.321Z,37.63
2019-05-21T00:25:16.985Z,37.63
2019-05-21T00:28:39.497Z,37.65
2019-05-21T00:32:19.281Z,37.63
2019-05-21T00:35:59.037Z,37.66
2019-05-21T00:39:38.806Z,37.70
2019-05-21T00:42:43.181Z,37.68
2019-05-21T00:45:46.672Z,37.68
2019-05-21T00:48:50.261Z,37.66
2019-05-21T00:52:06.521Z,37.66
2019-05-21T00:55:03.032Z,37.64
2019-05-21T00:58:07.519Z,37.66
2019-05-21T01:01:11.693Z,37.62
2019-05-21T01:04:15.142Z,37.61
2019-05-21T01:07:18.678Z,37.64
2019-05-21T01:10:24.480Z,37.64
2019-05-21T01:13:28.073Z,37.63
2019-05-21T01:16:31.609Z,37.65
2019-05-21T01:19:35.221Z,37.70
2019-05-21T01:22:38.859Z,37.67
2019-05-21T01:25:42.371Z,37.66
2019-05-21T01:28:45.863Z,37.65
2019-05-21T01:31:49.543Z,37.64
2019-05-21T01:34:53.069Z,37.64
2019-05-21T01:38:02.363Z,37.64
2019-05-21T01:41:05.914Z,37.63
2019-05-21T01:44:09.385Z,37.68
2019-05-21T01:47:13.936Z,37.66
2019-05-21T01:50:17.405Z,37.63
2019-05-21T01:53:20.780Z,37.63
2019-05-21T01:56:24.274Z,37.64
2019-05-21T01:59:27.767Z,37.64
2019-05-21T02:02:31.275Z,37.66
2019-05-21T02:05:35.800Z,37.66
2019-05-21T02:08:39.299Z,37.66
2019-05-21T02:11:42.807Z,37.64
2019-05-21T02:14:47.314Z,37.66
2019-05-21T02:17:50.817Z,37.63
2019-05-21T02:20:54.339Z,37.68
2019-05-21T02:23:57.831Z,37.74
2019-05-21T02:27:02.347Z,37.64
2019-05-21T02:30:08.451Z,37.66
2019-05-21T02:33:12.236Z,37.70
2019-05-21T02:36:15.735Z,37.69
2019-05-21T02:39:19.230Z,37.65
2019-05-21T02:42:22.715Z,37.66
2019-05-21T02:45:26.218Z,37.68
2019-05-21T02:48:29.736Z,37.65
2019-05-21T02:51:33.227Z,37.66
2019-05-21T02:54:41.569Z,37.66
2019-05-21T02:57:42.112Z,37.64
2019-05-21T03:01:01.892Z,37.68
2019-05-21T03:04:05.381Z,37.65
2019-05-21T03:07:17.673Z,37.68
2019-05-21T03:10:21.285Z,37.68
2019-05-21T03:13:25.789Z,37.66
2019-05-21T03:16:29.290Z,37.63
2019-05-21T03:19:32.700Z,37.68
2019-05-21T03:22:36.368Z,37.68
2019-05-21T03:25:39.800Z,37.69
2019-05-21T03:28:44.197Z,37.68
2019-05-21T03:31:55.831Z,37.66
2019-05-21T03:34:59.309Z,37.68
2019-05-21T03:38:03.858Z,37.71
2019-05-21T03:41:07.334Z,37.70
2019-05-21T03:44:10.773Z,37.69
2019-05-21T03:47:15.446Z,37.71
2019-05-21T03:50:18.884Z,37.69
2019-05-21T03:53:23.401Z,37.68
2019-05-21T03:56:27.905Z,37.71
2019-05-21T03:59:32.465Z,37.66
2019-05-21T04:02:35.951Z,37.69
2019-05-21T04:05:39.449Z,37.64
2019-05-21T04:08:42.851Z,37.68
2019-05-21T04:11:46.442Z,37.65
2019-05-21T04:14:55.095Z,37.62
2019-05-21T04:18:04.973Z,37.68
2019-05-21T04:21:08.444Z,37.62
2019-05-21T04:24:11.909Z,37.62
2019-05-21T04:27:15.440Z,37.67
2019-05-21T04:30:18.925Z,37.66
2019-05-21T04:33:23.461Z,37.62
2019-05-21T04:36:26.928Z,37.63
2019-05-21T04:39:30.456Z,37.66
2019-05-21T04:42:34.039Z,37.64
2019-05-21T04:45:37.451Z,37.63
2019-05-21T04:48:41.983Z,37.68
2019-05-21T04:51:45.481Z,37.66
2019-05-21T04:54:50.000Z,37.66
2019-05-21T04:57:54.518Z,37.63
2019-05-21T05:00:59.082Z,37.66
2019-05-21T05:04:02.560Z,37.65
2019-05-21T05:07:07.074Z,37.67
2019-05-21T05:10:10.577Z,37.67
2019-05-21T05:13:14.086Z,37.67
2019-05-21T05:16:18.626Z,37.66
2019-05-21T05:19:23.086Z,37.63
2019-05-21T05:22:26.535Z,37.63
2019-05-21T05:25:30.133Z,37.67
2019-05-21T05:28:34.668Z,37.67
2019-05-21T05:31:38.159Z,37.67
2019-05-21T05:34:42.687Z,37.68
2019-05-21T05:37:48.803Z,37.67
2019-05-21T05:40:51.526Z,37.69
2019-05-21T05:43:55.068Z,37.65
2019-05-21T05:46:58.530Z,37.67
2019-05-21T05:50:04.735Z,37.69
2019-05-21T05:53:08.198Z,37.70
2019-05-21T05:56:11.699Z,37.68
2019-05-21T05:59:15.202Z,37.68
2019-05-21T06:02:19.885Z,37.65
2019-05-21T06:05:23.368Z,37.66
2019-05-21T06:08:26.818Z,37.66
2019-05-21T06:11:31.247Z,37.66
2019-05-21T06:14:34.785Z,37.66
2019-05-21T06:17:39.628Z,37.72
2019-05-21T06:20:43.042Z,37.66
2019-05-21T06:23:46.480Z,37.63
2019-05-21T06:26:49.985Z,37.63
2019-05-21T06:29:53.469Z,37.65
2019-05-21T06:32:56.989Z,37.66
2019-05-21T06:36:00.486Z,37.64
2019-05-21T06:39:05.435Z,37.64
2019-05-21T06:42:09.951Z,37.66
2019-05-21T06:45:13.510Z,37.59
2019-05-21T06:48:17.987Z,37.60
2019-05-21T06:51:22.501Z,37.62
2019-05-21T06:54:25.995Z,37.64
2019-05-21T06:57:29.511Z,37.63
2019-05-21T07:00:33.019Z,37.65
2019-05-21T07:03:36.523Z,37.66
2019-05-21T07:06:40.008Z,37.66
2019-05-21T07:09:43.515Z,37.65
2019-05-21T07:12:48.026Z,37.66
2019-05-21T07:15:51.853Z,37.66
2019-05-21T07:18:55.450Z,37.84
2019-05-21T07:22:12.317Z,38.25
2019-05-21T07:25:05.276Z,38.32
2019-05-21T07:28:08.810Z,38.32
2019-05-21T07:31:12.303Z,38.33
2019-05-21T07:34:16.851Z,38.27
2019-05-21T07:37:21.380Z,38.22
2019-05-21T07:40:24.850Z,38.28
2019-05-21T07:43:29.411Z,38.39
2019-05-21T07:46:32.788Z,38.33
2019-05-21T07:49:39.656Z,38.30
2019-05-21T07:52:44.191Z,38.26
2019-05-21T07:55:47.795Z,38.25
2019-05-21T07:58:51.395Z,38.22
2019-05-21T08:01:54.933Z,38.17
2019-05-21T08:05:00.444Z,38.20
2019-05-21T08:08:05.991Z,38.19
2019-05-21T08:11:09.501Z,38.16
2019-05-21T08:14:13.048Z,38.14
2019-05-21T08:17:16.535Z,38.10
2019-05-21T08:20:21.031Z,38.08
2019-05-21T08:23:24.551Z,38.07
2019-05-21T08:26:29.061Z,38.06
2019-05-21T08:29:33.589Z,38.02
2019-05-21T08:32:37.219Z,38.05
2019-05-21T08:35:40.784Z,37.99
2019-05-21T08:38:44.421Z,37.92
2019-05-21T08:41:47.985Z,37.89
2019-05-21T08:44:57.429Z,37.86
2019-05-21T08:48:00.867Z,37.85
2019-05-21T08:51:05.592Z,37.82
2019-05-21T08:54:10.193Z,37.82
2019-05-21T08:57:14.707Z,37.77
2019-05-21T09:00:20.094Z,37.76
2019-05-21T09:03:23.576Z,37.77
2019-05-21T09:06:28.747Z,37.82
2019-05-21T09:09:48.626Z,38.23
2019-05-21T09:12:37.541Z,38.36
2019-05-21T09:15:41.076Z,38.36
2019-05-21T09:18:44.676Z,38.31
2019-05-21T09:21:48.253Z,38.27
2019-05-21T09:24:51.783Z,38.30
2019-05-21T09:27:56.276Z,38.23
2019-05-21T09:31:01.846Z,38.21
2019-05-21T09:34:04.955Z,38.22
2019-05-21T09:37:19.161Z,38.18
2019-05-21T09:40:15.209Z,38.14
2019-05-21T09:43:19.720Z,38.10
2019-05-21T09:46:23.217Z,38.13
2019-05-21T09:49:26.978Z,38.08
2019-05-21T09:52:30.437Z,38.06
2019-05-21T09:55:34.003Z,38.08
2019-05-21T09:58:43.793Z,38.12
2019-05-21T10:01:50.772Z,38.07
2019-05-21T10:04:54.275Z,38.09
2019-05-21T10:07:58.783Z,38.17
2019-05-21T10:11:02.363Z,38.15
2019-05-21T10:14:05.814Z,38.13
2019-05-21T10:17:09.413Z,38.13
2019-05-21T10:20:13.022Z,38.12
2019-05-21T10:23:16.499Z,38.12
2019-05-21T10:26:20.138Z,38.11
2019-05-21T10:29:32.722Z,38.11
2019-05-21T10:32:36.221Z,38.01
2019-05-21T10:35:39.725Z,38.01
2019-05-21T10:38:43.219Z,37.95
2019-05-21T10:41:46.740Z,38.02
2019-05-21T10:44:50.357Z,37.94
2019-05-21T10:47:53.939Z,37.97
2019-05-21T10:50:58.457Z,37.91
2019-05-21T10:54:02.157Z,37.85
2019-05-21T10:57:05.663Z,37.80
2019-05-21T11:00:12.471Z,37.79
2019-05-21T11:03:24.355Z,37.72
2019-05-21T11:06:29.885Z,37.69
2019-05-21T11:09:33.743Z,37.69
2019-05-21T11:12:39.180Z,37.73
2019-05-21T11:15:42.647Z,37.77
2019-05-21T11:18:47.170Z,37.90
2019-05-21T11:21:51.721Z,38.00
2019-05-21T11:24:56.348Z,38.04
2019-05-21T11:27:59.930Z,38.06
2019-05-21T11:31:03.410Z,38.08
2019-05-21T11:34:06.917Z,38.11
2019-05-21T11:37:10.428Z,38.09
2019-05-21T11:40:13.997Z,38.08
2019-05-21T11:43:17.427Z,38.08
2019-05-21T11:46:20.948Z,38.06
2019-05-21T11:49:24.363Z,38.29
2019-05-21T11:52:29.986Z,38.74
2019-05-21T11:55:33.496Z,38.90
2019-05-21T11:58:39.687Z,38.82
2019-05-21T12:01:42.459Z,38.81
2019-05-21T12:04:46.035Z,38.82
2019-05-21T12:07:49.541Z,38.76
2019-05-21T12:10:53.019Z,38.83
2019-05-21T12:13:56.518Z,38.83
2019-05-21T12:17:00.037Z,38.94
2019-05-21T12:20:03.577Z,38.84
2019-05-21T12:23:07.033Z,38.84
2019-05-21T12:26:10.544Z,38.70
2019-05-21T12:29:14.038Z,38.58
2019-05-21T12:32:21.144Z,38.52
2019-05-21T12:35:23.728Z,38.50
2019-05-21T12:38:27.247Z,38.53
2019-05-21T12:41:30.727Z,38.77
2019-05-21T12:44:35.350Z,38.87
2019-05-21T12:47:38.750Z,38.86
2019-05-21T12:50:42.242Z,38.71
2019-05-21T12:53:45.757Z,38.64
2019-05-21T12:56:51.301Z,38.56
2019-05-21T12:59:54.787Z,38.73
2019-05-21T13:02:58.425Z,38.68
2019-05-21T13:06:03.079Z,38.65
2019-05-21T13:09:08.293Z,38.53
2019-05-21T13:12:11.888Z,38.52
2019-05-21T13:15:15.359Z,38.47
2019-05-21T13:18:19.918Z,38.49
2019-05-21T13:21:23.397Z,38.47
2019-05-21T13:24:26.923Z,38.41
2019-05-21T13:27:30.395Z,38.39
2019-05-21T13:30:36.001Z,38.44
2019-05-21T13:33:39.473Z,38.42
2019-05-21T13:36:42.992Z,38.41
2019-05-21T13:39:50.393Z,38.35
2019-05-21T13:42:52.810Z,38.34
2019-05-21T13:45:58.764Z,38.31
2019-05-21T13:49:02.289Z,38.25
2019-05-21T13:52:06.412Z,38.20
2019-05-21T13:55:09.983Z,38.18
2019-05-21T13:58:13.671Z,38.20
2019-05-21T14:01:17.107Z,38.21
2019-05-21T14:04:20.637Z,38.22
2019-05-21T14:07:24.129Z,38.08
2019-05-21T14:10:29.843Z,38.04
2019-05-21T14:13:34.754Z,38.06
2019-05-21T14:16:40.445Z,38.21
2019-05-21T14:19:44.061Z,38.41
2019-05-21T14:22:48.539Z,38.59
2019-05-21T14:25:52.077Z,38.61
2019-05-21T14:28:55.706Z,38.67
2019-05-21T14:31:59.280Z,38.61
2019-05-21T14:35:05.624Z,38.73
2019-05-21T14:38:11.213Z,38.63
2019-05-21T14:41:15.719Z,38.60
2019-05-21T14:44:21.320Z,38.68
2019-05-21T14:47:24.900Z,38.69
2019-05-21T14:50:28.515Z,38.76
2019-05-21T14:53:32.150Z,38.60
2019-05-21T14:56:37.764Z,38.58
2019-05-21T14:59:41.627Z,38.49
2019-05-21T15:02:45.394Z,38.46
2019-05-21T15:05:48.860Z,38.50
2019-05-21T15:08:52.361Z,38.50
2019-05-21T15:11:55.890Z,38.42
2019-05-21T15:14:59.421Z,38.35
2019-05-21T15:18:02.872Z,38.28
2019-05-21T15:21:11.110Z,38.20
2019-05-21T15:24:14.702Z,38.10
2019-05-21T15:27:18.385Z,38.24
2019-05-21T15:30:22.050Z,38.39
2019-05-21T15:33:25.708Z,38.38
2019-05-21T15:36:29.206Z,38.33
2019-05-21T15:39:35.770Z,38.27
2019-05-21T15:42:40.365Z,38.23
2019-05-21T15:45:46.459Z,38.23
2019-05-21T15:48:52.599Z,38.20
2019-05-21T15:51:56.037Z,38.19
2019-05-21T15:55:00.946Z,38.14
2019-05-21T15:58:04.362Z,38.11
2019-05-21T16:01:08.914Z,38.05
2019-05-21T16:04:16.227Z,38.04
2019-05-21T16:07:18.279Z,38.09
2019-05-21T16:10:21.857Z,38.12
2019-05-21T16:13:25.486Z,38.00
2019-05-21T16:16:29.053Z,37.97
2019-05-21T16:19:32.585Z,37.88
2019-05-21T16:22:37.061Z,37.84
2019-05-21T16:25:41.518Z,37.84
2019-05-21T16:28:45.122Z,37.80
2019-05-21T16:31:48.594Z,37.75
2019-05-21T16:34:53.163Z,37.73
2019-05-21T16:37:57.660Z,37.71
2019-05-21T16:41:01.182Z,37.68
2019-05-21T16:44:04.776Z,37.67
2019-05-21T16:47:08.403Z,37.64
2019-05-21T16:50:11.874Z,37.62
2019-05-21T16:53:15.363Z,37.61
2019-05-21T16:56:18.865Z,37.64
2019-05-21T16:59:22.350Z,37.61
2019-05-21T17:02:25.882Z,37.61
2019-05-21T17:05:29.449Z,37.61
2019-05-21T17:08:33.893Z,37.61
2019-05-21T17:11:37.432Z,37.60
2019-05-21T17:14:40.873Z,37.59
2019-05-21T17:17:44.377Z,37.60
2019-05-21T17:20:47.890Z,37.58
2019-05-21T17:23:51.396Z,37.61
2019-05-21T17:26:54.891Z,37.57
2019-05-21T17:29:58.438Z,37.62
2019-05-21T17:33:02.923Z,37.58
2019-05-21T17:36:06.439Z,37.67
2019-05-21T17:39:10.954Z,38.34
2019-05-21T17:42:15.874Z,38.42
2019-05-21T17:45:20.601Z,38.47
2019-05-21T17:48:24.132Z,38.45
2019-05-21T17:51:29.660Z,38.46
2019-05-21T17:54:34.204Z,38.41
2019-05-21T17:57:37.720Z,38.37
2019-05-21T18:00:50.530Z,38.33
2019-05-21T18:03:54.150Z,38.28
2019-05-21T18:06:57.661Z,38.32
2019-05-21T18:10:03.385Z,38.33
2019-05-21T18:13:09.866Z,38.27
2019-05-21T18:16:14.113Z,38.23
2019-05-21T18:19:17.631Z,38.19
2019-05-21T18:22:22.699Z,38.22
2019-05-21T18:25:26.194Z,38.19
2019-05-21T18:28:29.746Z,38.23
2019-05-21T18:31:35.540Z,38.17
2019-05-21T18:34:38.942Z,38.17
2019-05-21T18:37:43.486Z,38.16
2019-05-21T18:40:46.982Z,38.15
2019-05-21T18:43:50.511Z,38.13
2019-05-21T18:46:53.992Z,38.12
2019-05-21T18:49:57.498Z,38.12
2019-05-21T18:53:00.993Z,38.12
2019-05-21T18:56:05.629Z,38.15
2019-05-21T18:59:10.619Z,38.12
2019-05-21T19:02:14.695Z,38.14
2019-05-21T19:05:20.411Z,38.08
2019-05-21T19:08:23.840Z,38.10
2019-05-21T19:11:27.433Z,38.06
2019-05-21T19:14:31.039Z,38.09
2019-05-21T19:17:35.898Z,37.99
2019-05-21T19:20:40.591Z,38.02
2019-05-21T19:23:44.183Z,38.27
2019-05-21T19:26:47.716Z,38.42
2019-05-21T19:29:51.210Z,38.42
2019-05-21T19:32:54.709Z,38.47
2019-05-21T19:35:59.230Z,38.55
2019-05-21T19:39:02.872Z,38.53
2019-05-21T19:42:06.428Z,38.55
2019-05-21T19:45:09.946Z,38.52
2019-05-21T19:48:14.478Z,38.53
2019-05-21T19:51:17.953Z,38.46
2019-05-21T19:54:21.422Z,38.45
2019-05-21T19:57:26.599Z,38.42
2019-05-21T20:00:31.819Z,38.36
2019-05-21T20:03:35.245Z,38.38
2019-05-21T20:06:38.741Z,38.36
2019-05-21T20:09:46.319Z,38.40
2019-05-21T20:12:49.861Z,38.44
2019-05-21T20:15:54.630Z,38.43
2019-05-21T20:18:59.100Z,38.43
2019-05-21T20:22:04.641Z,38.43
2019-05-21T20:25:08.541Z,38.46
2019-05-21T20:28:12.703Z,38.45
2019-05-21T20:31:16.639Z,38.50
2019-05-21T20:34:20.090Z,38.51
2019-05-21T20:37:26.411Z,38.49
2019-05-21T20:40:30.969Z,38.50
2019-05-21T20:43:34.740Z,38.52
2019-05-21T20:46:38.191Z,38.48
2019-05-21T20:49:44.018Z,38.52
2019-05-21T20:52:48.317Z,38.64
2019-05-21T20:55:51.759Z,38.59
2019-05-21T20:58:55.255Z,38.56
2019-05-21T21:01:59.066Z,38.56
2019-05-21T21:05:03.233Z,38.59
2019-05-21T21:08:06.724Z,38.69
2019-05-21T21:11:11.370Z,38.65
2019-05-21T21:14:18.278Z,38.68
2019-05-21T21:17:21.608Z,38.76
2019-05-21T21:20:25.018Z,38.76
2019-05-21T21:23:30.139Z,38.77
2019-05-21T21:26:34.194Z,38.81
2019-05-21T21:29:38.678Z,38.75
2019-05-21T21:32:42.434Z,38.70
2019-05-21T21:35:45.868Z,38.75
2019-05-21T21:38:49.547Z,38.84
2019-05-21T21:41:53.153Z,38.77
2019-05-21T21:44:56.577Z,38.84
2019-05-21T21:48:01.343Z,38.90
2019-05-21T21:51:05.363Z,38.93
2019-05-21T21:54:09.802Z,38.93
2019-05-21T21:57:14.743Z,38.89
2019-05-21T22:01:00.813Z,38.83
2019-05-21T22:04:05.212Z,38.84
2019-05-21T22:07:10.073Z,38.96
2019-05-21T22:10:15.856Z,38.90
2019-05-21T22:13:19.299Z,38.89
2019-05-21T22:16:23.801Z,38.94
2019-05-21T22:19:27.465Z,38.95
2019-05-21T22:22:31.202Z,38.94
2019-05-21T22:25:34.730Z,38.97
2019-05-21T22:28:41.156Z,39.07
2019-05-21T22:31:47.669Z,38.94
2019-05-21T22:34:51.169Z,39.01
2019-05-21T22:37:54.694Z,39.00
2019-05-21T22:40:59.467Z,39.05
2019-05-21T22:44:02.983Z,38.97
2019-05-21T22:47:07.417Z,39.06
2019-05-21T22:50:10.913Z,39.06
2019-05-21T22:53:14.321Z,39.09
2019-05-21T22:56:17.730Z,39.04
2019-05-21T22:59:21.222Z,39.03
2019-05-21T23:02:28.584Z,38.97
2019-05-21T23:05:32.008Z,39.00
2019-05-21T23:08:36.693Z,39.09
2019-05-21T23:11:40.134Z,39.03
2019-05-21T23:14:43.662Z,39.04
2019-05-21T23:17:48.455Z,39.00
2019-05-21T23:20:53.452Z,39.02
2019-05-21T23:23:56.964Z,39.02
2019-05-21T23:27:00.421Z,39.08
2019-05-21T23:30:04.504Z,39.08
2019-05-21T23:33:10.593Z,39.02
2019-05-21T23:36:14.099Z,38.99
2019-05-21T23:39:23.099Z,39.04
2019-05-21T23:42:29.862Z,39.01
2019-05-21T23:45:32.496Z,39.04
2019-05-21T23:48:36.356Z,39.13
2019-05-21T23:51:39.779Z,39.04
2019-05-21T23:54:43.293Z,39.06
2019-05-21T23:57:46.792Z,39.06
